createdAt,value
2022-08-22T00:00:16.316Z,16.80
2022-08-22T00:02:58.816Z,18.10
2022-08-22T00:03:17.685Z,16.70
2022-08-22T00:05:45.246Z,16.60
2022-08-22T00:08:35.367Z,16.60
2022-08-22T00:11:18.456Z,16.60
2022-08-22T00:14:01.686Z,16.50
2022-08-22T00:17:00.492Z,16.50
2022-08-22T00:19:54.698Z,16.40
2022-08-22T00:22:47.800Z,16.30
2022-08-22T00:25:44.674Z,16.30
2022-08-22T00:29:07.023Z,16.30
2022-08-22T00:31:52.753Z,16.30
2022-08-22T00:34:36.257Z,16.20
2022-08-22T00:37:21.716Z,16.10
2022-08-22T00:40:35.917Z,16.10
2022-08-22T00:43:21.490Z,16.10
2022-08-22T00:46:10.393Z,16.00
2022-08-22T00:48:49.217Z,16.00
2022-08-22T00:51:34.874Z,16.00
2022-08-22T00:54:17.416Z,16.00
2022-08-22T00:57:15.959Z,15.90
2022-08-22T01:00:13.712Z,15.90
2022-08-22T01:03:18.455Z,15.90
2022-08-22T01:06:20.634Z,15.90
2022-08-22T01:08:53.326Z,15.90
2022-08-22T01:11:52.757Z,15.70
2022-08-22T01:14:37.870Z,15.70
2022-08-22T01:17:35.368Z,15.70
2022-08-22T01:20:17.548Z,15.70
2022-08-22T01:23:24.748Z,15.70
2022-08-22T01:26:30.455Z,15.60
2022-08-22T01:29:16.087Z,15.60
2022-08-22T01:32:11.255Z,15.50
2022-08-22T01:34:47.075Z,15.50
2022-08-22T01:37:43.720Z,15.50
2022-08-22T01:40:54.022Z,15.40
2022-08-22T01:44:00.227Z,15.40
2022-08-22T01:46:54.189Z,15.30
2022-08-22T01:49:49.003Z,15.30
2022-08-22T01:52:19.920Z,15.20
2022-08-22T01:54:58.506Z,15.20
2022-08-22T01:57:34.453Z,15.20
2022-08-22T02:00:09.396Z,15.10
2022-08-22T02:03:22.642Z,15.10
2022-08-22T02:06:24.413Z,15.10
2022-08-22T02:09:04.447Z,15.10
2022-08-22T02:11:50.030Z,15.10
2022-08-22T02:14:40.360Z,15.10
2022-08-22T02:17:22.072Z,15.10
2022-08-22T02:19:58.649Z,15.10
2022-08-22T02:22:31.739Z,15.00
2022-08-22T02:25:17.174Z,15.00
2022-08-22T02:27:54.725Z,15.00
2022-08-22T02:30:41.505Z,15.00
2022-08-22T02:33:13.395Z,15.00
2022-08-22T02:35:56.569Z,15.00
2022-08-22T02:38:40.865Z,14.90
2022-08-22T02:41:07.661Z,14.80
2022-08-22T02:43:41.055Z,14.80
2022-08-22T02:46:23.316Z,14.80
2022-08-22T02:49:04.509Z,14.80
2022-08-22T02:51:49.910Z,14.80
2022-08-22T02:54:26.815Z,14.80
2022-08-22T02:57:11.426Z,14.70
2022-08-22T03:00:31.334Z,14.70
2022-08-22T03:02:59.881Z,14.60
2022-08-22T03:05:49.204Z,14.60
2022-08-22T03:08:35.545Z,14.60
2022-08-22T03:11:17.095Z,14.60
2022-08-22T03:14:16.531Z,14.60
2022-08-22T03:17:09.796Z,14.60
2022-08-22T03:20:12.765Z,14.50
2022-08-22T03:22:51.239Z,14.50
2022-08-22T03:25:48.668Z,14.40
2022-08-22T03:28:29.050Z,14.40
2022-08-22T03:31:09.810Z,14.40
2022-08-22T03:33:38.364Z,14.40
2022-08-22T03:36:27.113Z,14.30
2022-08-22T03:39:14.963Z,14.30
2022-08-22T03:41:50.506Z,14.30
2022-08-22T03:44:38.980Z,14.20
2022-08-22T03:47:19.492Z,14.20
2022-08-22T03:49:59.361Z,14.20
2022-08-22T03:53:18.766Z,14.20
2022-08-22T03:55:46.066Z,14.10
2022-08-22T03:58:40.863Z,14.10
2022-08-22T04:01:35.103Z,14.10
2022-08-22T04:07:32.284Z,14.00
2022-08-22T04:10:15.340Z,14.00
2022-08-22T04:13:10.099Z,14.00
2022-08-22T04:15:57.186Z,14.00
2022-08-22T04:18:45.557Z,13.90
2022-08-22T04:21:18.361Z,13.90
2022-08-22T04:24:06.114Z,13.80
2022-08-22T04:26:50.065Z,13.80
2022-08-22T04:29:17.056Z,13.80
2022-08-22T04:32:05.422Z,13.70
2022-08-22T04:34:43.203Z,13.80
2022-08-22T04:37:22.455Z,13.80
2022-08-22T04:40:02.214Z,13.80
2022-08-22T04:42:34.990Z,13.80
2022-08-22T04:45:33.684Z,13.80
2022-08-22T04:48:19.458Z,13.80
2022-08-22T04:51:03.234Z,13.80
2022-08-22T04:53:48.233Z,13.90
2022-08-22T04:56:42.106Z,13.90
2022-08-22T04:59:12.642Z,13.90
2022-08-22T05:01:44.647Z,13.90
2022-08-22T05:04:21.131Z,14.00
2022-08-22T05:07:00.735Z,14.10
2022-08-22T05:09:32.608Z,14.10
2022-08-22T05:12:05.916Z,14.20
2022-08-22T05:14:48.650Z,14.40
2022-08-22T05:17:22.461Z,14.50
2022-08-22T05:19:53.488Z,14.60
2022-08-22T05:22:27.171Z,14.80
2022-08-22T05:25:01.179Z,14.90
2022-08-22T05:27:44.699Z,14.90
2022-08-22T05:30:16.408Z,15.00
2022-08-22T05:33:18.626Z,15.10
2022-08-22T05:35:58.039Z,15.20
2022-08-22T05:38:32.188Z,15.30
2022-08-22T05:41:08.620Z,15.40
2022-08-22T05:43:43.101Z,15.50
2022-08-22T05:46:27.112Z,15.60
2022-08-22T05:49:00.422Z,15.70
2022-08-22T05:51:48.746Z,15.80
2022-08-22T05:54:34.275Z,15.90
2022-08-22T05:57:24.075Z,16.00
2022-08-22T06:00:01.545Z,16.20
2022-08-22T06:02:51.638Z,16.30
2022-08-22T06:05:30.800Z,16.30
2022-08-22T06:08:25.947Z,16.50
2022-08-22T06:11:01.457Z,16.60
2022-08-22T06:13:47.242Z,16.70
2022-08-22T06:16:21.584Z,16.90
2022-08-22T06:18:50.704Z,17.00
2022-08-22T06:21:39.646Z,17.10
2022-08-22T06:24:13.178Z,17.20
2022-08-22T06:26:48.876Z,17.40
2022-08-22T06:29:32.490Z,17.50
2022-08-22T06:32:03.415Z,17.60
2022-08-22T06:34:37.275Z,17.80
2022-08-22T06:37:08.288Z,17.90
2022-08-22T06:39:39.481Z,18.00
2022-08-22T06:42:15.992Z,18.10
2022-08-22T06:44:45.505Z,18.30
2022-08-22T06:47:33.526Z,18.40
2022-08-22T06:50:06.765Z,18.60
2022-08-22T06:53:18.374Z,18.70
2022-08-22T06:55:54.767Z,18.90
2022-08-22T06:58:32.319Z,19.00
2022-08-22T07:01:12.701Z,19.10
2022-08-22T07:03:46.101Z,19.30
2022-08-22T07:06:19.607Z,19.40
2022-08-22T07:08:52.849Z,19.60
2022-08-22T07:11:34.752Z,19.70
2022-08-22T07:14:06.350Z,19.90
2022-08-22T07:16:52.129Z,20.10
2022-08-22T07:19:30.756Z,20.30
2022-08-22T07:22:00.160Z,20.40
2022-08-22T07:24:32.809Z,20.70
2022-08-22T07:27:22.668Z,20.90
2022-08-22T07:30:10.842Z,21.10
2022-08-22T07:32:55.559Z,21.30
2022-08-22T07:35:53.133Z,21.60
2022-08-22T07:38:20.703Z,22.30
2022-08-22T07:40:50.458Z,24.20
2022-08-22T07:43:32.255Z,25.90
2022-08-22T07:46:08.353Z,27.80
2022-08-22T07:49:09.142Z,29.60
2022-08-22T07:51:51.425Z,31.40
2022-08-22T07:54:27.151Z,33.10
2022-08-22T07:57:03.047Z,34.70
2022-08-22T07:59:33.198Z,36.00
2022-08-22T08:02:02.160Z,37.10
2022-08-22T08:04:40.248Z,38.10
2022-08-22T08:07:09.978Z,38.70
2022-08-22T08:09:56.772Z,39.30
2022-08-22T08:12:35.041Z,39.90
2022-08-22T08:15:04.788Z,40.30
2022-08-22T08:17:34.875Z,41.00
2022-08-22T08:20:10.679Z,41.80
2022-08-22T08:22:40.269Z,42.10
2022-08-22T08:25:08.889Z,42.40
2022-08-22T08:27:57.281Z,42.90
2022-08-22T08:30:34.660Z,43.50
2022-08-22T08:33:24.271Z,44.20
2022-08-22T08:36:02.305Z,44.30
2022-08-22T08:38:38.140Z,44.50
2022-08-22T08:41:23.825Z,44.60
2022-08-22T08:44:33.947Z,44.80
2022-08-22T08:47:19.575Z,44.60
2022-08-22T08:50:07.114Z,45.20
2022-08-22T08:52:53.064Z,45.70
2022-08-22T08:55:22.563Z,46.30
2022-08-22T08:58:30.168Z,46.20
2022-08-22T09:01:16.887Z,45.70
2022-08-22T09:03:52.475Z,43.60
2022-08-22T09:06:34.653Z,42.20
2022-08-22T09:09:23.600Z,42.30
2022-08-22T09:12:30.565Z,42.60
2022-08-22T09:15:00.397Z,40.70
2022-08-22T09:18:08.520Z,38.90
2022-08-22T09:21:01.416Z,37.40
2022-08-22T09:23:37.760Z,37.40
2022-08-22T09:26:09.619Z,37.60
2022-08-22T09:28:48.885Z,38.20
2022-08-22T09:31:47.545Z,39.30
2022-08-22T09:34:45.199Z,39.90
2022-08-22T09:37:25.228Z,40.30
2022-08-22T09:39:57.821Z,40.70
2022-08-22T09:42:39.771Z,41.40
2022-08-22T09:45:15.002Z,41.90
2022-08-22T09:47:47.970Z,42.10
2022-08-22T09:50:37.114Z,42.30
2022-08-22T09:54:00.369Z,42.90
2022-08-22T09:56:50.481Z,43.90
2022-08-22T09:59:33.805Z,44.80
2022-08-22T10:02:22.062Z,45.40
2022-08-22T10:05:04.129Z,46.00
2022-08-22T10:08:12.891Z,46.20
2022-08-22T10:11:00.593Z,46.10
2022-08-22T10:14:00.797Z,45.80
2022-08-22T10:16:46.964Z,44.70
2022-08-22T10:19:26.196Z,45.40
2022-08-22T10:22:14.612Z,45.80
2022-08-22T10:24:58.670Z,45.80
2022-08-22T10:27:54.912Z,44.80
2022-08-22T10:30:36.199Z,43.20
2022-08-22T10:33:35.233Z,42.30
2022-08-22T10:36:07.449Z,41.90
2022-08-22T10:38:50.900Z,41.30
2022-08-22T10:41:48.722Z,40.90
2022-08-22T10:44:26.652Z,40.90
2022-08-22T10:47:21.268Z,40.90
2022-08-22T10:49:56.707Z,41.90
2022-08-22T10:52:31.860Z,43.10
2022-08-22T10:55:17.903Z,43.90
2022-08-22T10:57:47.371Z,44.10
2022-08-22T11:00:50.104Z,44.50
2022-08-22T11:03:39.450Z,44.40
2022-08-22T11:06:15.909Z,42.50
2022-08-22T11:09:01.419Z,42.60
2022-08-22T11:12:11.601Z,42.20
2022-08-22T11:14:52.384Z,40.80
2022-08-22T11:18:02.476Z,40.20
2022-08-22T11:20:54.875Z,39.30
2022-08-22T11:23:44.743Z,38.50
2022-08-22T11:26:29.894Z,38.20
2022-08-22T11:29:38.716Z,38.30
2022-08-22T11:32:25.558Z,38.60
2022-08-22T11:35:08.831Z,39.10
2022-08-22T11:37:56.385Z,39.30
2022-08-22T11:40:27.591Z,38.60
2022-08-22T11:43:39.164Z,37.60
2022-08-22T11:46:23.942Z,36.40
2022-08-22T11:49:26.944Z,35.70
2022-08-22T11:52:10.682Z,36.60
2022-08-22T11:54:49.457Z,38.50
2022-08-22T11:57:41.689Z,39.30
2022-08-22T12:00:38.112Z,39.50
2022-08-22T12:03:37.822Z,38.20
2022-08-22T12:06:35.326Z,36.80
2022-08-22T12:09:25.008Z,35.70
2022-08-22T12:12:06.881Z,35.40
2022-08-22T12:14:42.836Z,36.80
2022-08-22T12:17:28.522Z,38.10
2022-08-22T12:20:24.562Z,38.00
2022-08-22T12:23:09.558Z,37.50
2022-08-22T12:25:59.407Z,36.40
2022-08-22T12:28:32.470Z,35.80
2022-08-22T12:31:14.328Z,35.20
2022-08-22T12:33:52.851Z,34.50
2022-08-22T12:36:59.020Z,35.20
2022-08-22T12:39:34.853Z,35.50
2022-08-22T12:42:07.594Z,36.70
2022-08-22T12:44:46.289Z,37.80
2022-08-22T12:47:28.375Z,38.00
2022-08-22T12:50:20.834Z,38.20
2022-08-22T12:52:54.375Z,38.00
2022-08-22T12:55:29.916Z,37.70
2022-08-22T12:58:17.688Z,37.20
2022-08-22T13:00:47.421Z,36.70
2022-08-22T13:03:35.371Z,36.50
2022-08-22T13:06:07.716Z,36.50
2022-08-22T13:08:45.696Z,36.30
2022-08-22T13:11:17.462Z,36.50
2022-08-22T13:13:56.511Z,36.90
2022-08-22T13:16:26.359Z,36.80
2022-08-22T13:19:07.687Z,36.40
2022-08-22T13:21:40.360Z,36.00
2022-08-22T13:24:16.967Z,35.30
2022-08-22T13:26:56.865Z,34.20
2022-08-22T13:29:42.732Z,33.20
2022-08-22T13:32:23.622Z,32.80
2022-08-22T13:34:56.797Z,32.30
2022-08-22T13:37:46.493Z,31.80
2022-08-22T13:40:31.602Z,31.90
2022-08-22T13:43:09.824Z,31.90
2022-08-22T13:45:40.352Z,32.00
2022-08-22T13:48:11.932Z,32.10
2022-08-22T13:51:08.026Z,32.10
2022-08-22T13:53:49.366Z,32.10
2022-08-22T13:56:36.410Z,32.10
2022-08-22T13:59:07.332Z,32.00
2022-08-22T14:01:49.568Z,31.80
2022-08-22T14:04:36.688Z,31.80
2022-08-22T14:07:06.576Z,31.60
2022-08-22T14:09:54.220Z,31.50
2022-08-22T14:12:49.916Z,31.10
2022-08-22T14:15:32.207Z,30.90
2022-08-22T14:18:36.319Z,30.80
2022-08-22T14:21:25.133Z,30.80
2022-08-22T14:23:58.607Z,30.70
2022-08-22T14:26:37.217Z,30.60
2022-08-22T14:29:13.379Z,30.50
2022-08-22T14:31:40.825Z,30.30
2022-08-22T14:34:14.171Z,30.00
2022-08-22T14:37:13.014Z,29.80
2022-08-22T14:39:48.001Z,29.60
2022-08-22T14:42:23.037Z,29.60
2022-08-22T14:45:08.706Z,29.80
2022-08-22T14:47:55.070Z,29.90
2022-08-22T14:50:55.626Z,30.00
2022-08-22T14:53:29.948Z,30.10
2022-08-22T14:55:59.740Z,30.10
2022-08-22T14:58:29.934Z,30.00
2022-08-22T15:01:06.597Z,29.80
2022-08-22T15:03:38.770Z,29.80
2022-08-22T15:06:29.736Z,29.60
2022-08-22T15:08:57.839Z,29.50
2022-08-22T15:11:31.898Z,29.30
2022-08-22T15:14:15.964Z,29.30
2022-08-22T15:16:55.389Z,29.20
2022-08-22T15:19:47.367Z,29.10
2022-08-22T15:22:27.689Z,29.00
2022-08-22T15:25:13.464Z,28.90
2022-08-22T15:28:05.128Z,28.90
2022-08-22T15:30:38.619Z,28.80
2022-08-22T15:33:16.183Z,28.70
2022-08-22T15:35:45.770Z,28.40
2022-08-22T15:38:28.147Z,28.20
2022-08-22T15:40:56.560Z,28.00
2022-08-22T15:43:28.826Z,27.80
2022-08-22T15:46:26.916Z,27.50
2022-08-22T15:49:11.043Z,27.40
2022-08-22T15:51:43.034Z,27.20
2022-08-22T15:54:24.647Z,27.10
2022-08-22T15:56:52.731Z,26.90
2022-08-22T15:59:25.384Z,26.80
2022-08-22T16:02:15.706Z,26.70
2022-08-22T16:04:47.437Z,26.60
2022-08-22T16:07:34.401Z,26.50
2022-08-22T16:10:06.357Z,26.40
2022-08-22T16:12:45.703Z,26.30
2022-08-22T16:15:46.698Z,26.10
2022-08-22T16:18:36.911Z,26.00
2022-08-22T16:21:12.344Z,26.00
2022-08-22T16:23:53.556Z,26.00
2022-08-22T16:26:24.912Z,26.00
2022-08-22T16:29:07.007Z,26.00
2022-08-22T16:31:46.124Z,26.00
2022-08-22T16:34:16.198Z,26.00
2022-08-22T16:36:43.253Z,26.00
2022-08-22T16:39:47.954Z,25.90
2022-08-22T16:42:20.632Z,25.80
2022-08-22T16:44:58.552Z,25.80
2022-08-22T16:47:34.203Z,25.70
2022-08-22T16:50:21.872Z,25.60
2022-08-22T16:52:52.113Z,25.50
2022-08-22T16:55:31.074Z,25.50
2022-08-22T16:58:11.474Z,25.40
2022-08-22T17:00:48.748Z,25.40
2022-08-22T17:03:46.249Z,25.40
2022-08-22T17:06:37.906Z,25.30
2022-08-22T17:09:36.367Z,25.30
2022-08-22T17:12:27.734Z,25.30
2022-08-22T17:15:25.178Z,25.30
2022-08-22T17:18:10.811Z,25.30
2022-08-22T17:21:17.099Z,25.30
2022-08-22T17:23:56.765Z,25.20
2022-08-22T17:26:35.994Z,25.30
2022-08-22T17:29:15.498Z,25.30
2022-08-22T17:32:04.548Z,25.20
2022-08-22T17:34:56.940Z,25.20
2022-08-22T17:37:46.146Z,25.20
2022-08-22T17:40:24.072Z,25.10
2022-08-22T17:43:03.531Z,25.10
2022-08-22T17:45:49.078Z,25.00
2022-08-22T17:48:19.721Z,25.00
2022-08-22T17:50:46.636Z,24.90
2022-08-22T17:53:41.593Z,24.80
2022-08-22T17:56:20.558Z,24.80
2022-08-22T17:59:21.128Z,24.70
2022-08-22T18:01:50.105Z,24.60
2022-08-22T18:04:43.293Z,24.50
2022-08-22T18:07:15.829Z,24.50
2022-08-22T18:09:53.989Z,24.40
2022-08-22T18:12:25.707Z,24.30
2022-08-22T18:15:02.931Z,24.20
2022-08-22T18:17:44.290Z,24.10
2022-08-22T18:20:20.613Z,24.00
2022-08-22T18:23:01.184Z,23.90
2022-08-22T18:25:54.568Z,23.80
2022-08-22T18:28:24.720Z,23.80
2022-08-22T18:31:05.654Z,23.70
2022-08-22T18:33:43.394Z,23.60
2022-08-22T18:36:30.970Z,23.40
2022-08-22T18:39:06.653Z,23.30
2022-08-22T18:41:33.754Z,23.20
2022-08-22T18:44:25.616Z,23.10
2022-08-22T18:46:59.120Z,23.00
2022-08-22T18:49:25.967Z,23.00
2022-08-22T18:52:09.123Z,22.90
2022-08-22T18:55:15.503Z,22.80
2022-08-22T18:57:53.087Z,22.70
2022-08-22T19:00:41.447Z,22.60
2022-08-22T19:03:39.480Z,22.50
2022-08-22T19:06:28.413Z,22.40
2022-08-22T19:09:07.670Z,22.30
2022-08-22T19:12:14.494Z,22.30
2022-08-22T19:15:12.791Z,22.20
2022-08-22T19:17:58.684Z,22.10
2022-08-22T19:20:49.636Z,22.10
2022-08-22T19:23:40.374Z,22.00
2022-08-22T19:26:41.496Z,22.00
2022-08-22T19:29:17.593Z,21.90
2022-08-22T19:31:48.090Z,21.80
2022-08-22T19:34:17.683Z,21.80
2022-08-22T19:36:46.563Z,21.70
2022-08-22T19:39:39.709Z,21.60
2022-08-22T19:42:12.895Z,21.60
2022-08-22T19:44:44.548Z,21.50
2022-08-22T19:47:17.611Z,21.40
2022-08-22T19:50:17.250Z,21.40
2022-08-22T19:52:57.997Z,21.30
2022-08-22T19:55:34.258Z,21.30
2022-08-22T19:58:07.699Z,21.20
2022-08-22T20:01:12.400Z,21.20
2022-08-22T20:03:54.110Z,21.10
2022-08-22T20:06:43.002Z,21.10
2022-08-22T20:09:20.767Z,21.00
2022-08-22T20:11:52.658Z,21.00
2022-08-22T20:14:30.359Z,20.90
2022-08-22T20:17:30.396Z,20.90
2022-08-22T20:20:17.719Z,20.80
2022-08-22T20:23:03.672Z,20.80
2022-08-22T20:25:57.972Z,20.70
2022-08-22T20:28:38.807Z,20.70
2022-08-22T20:31:12.244Z,20.60
2022-08-22T20:33:42.473Z,20.50
2022-08-22T20:36:27.495Z,20.40
2022-08-22T20:39:06.327Z,20.30
2022-08-22T20:41:44.539Z,20.30
2022-08-22T20:44:19.802Z,20.20
2022-08-22T20:46:54.879Z,20.20
2022-08-22T20:49:46.993Z,20.10
2022-08-22T20:52:19.857Z,20.10
2022-08-22T20:55:31.498Z,20.00
2022-08-22T20:58:02.607Z,19.90
2022-08-22T21:01:00.146Z,19.90
2022-08-22T21:03:30.997Z,19.80
2022-08-22T21:06:23.209Z,19.70
2022-08-22T21:09:17.207Z,19.60
2022-08-22T21:11:51.341Z,19.50
2022-08-22T21:14:25.432Z,19.40
2022-08-22T21:16:53.179Z,19.40
2022-08-22T21:19:25.782Z,19.20
2022-08-22T21:21:53.118Z,19.20
2022-08-22T21:24:20.339Z,19.10
2022-08-22T21:27:00.061Z,19.10
2022-08-22T21:29:37.956Z,19.00
2022-08-22T21:32:26.177Z,18.90
2022-08-22T21:34:53.918Z,18.90
2022-08-22T21:37:32.171Z,18.80
2022-08-22T21:40:16.824Z,18.80
2022-08-22T21:42:58.194Z,18.70
2022-08-22T21:45:32.964Z,18.70
2022-08-22T21:47:59.959Z,18.60
2022-08-22T21:50:38.033Z,18.50
2022-08-22T21:53:24.708Z,18.50
2022-08-22T21:56:14.484Z,18.40
2022-08-22T21:58:42.543Z,18.30
2022-08-22T22:01:30.381Z,18.20
2022-08-22T22:03:59.523Z,18.20
2022-08-22T22:06:27.426Z,18.10
2022-08-22T22:08:54.453Z,18.00
2022-08-22T22:11:21.425Z,18.00
2022-08-22T22:13:48.995Z,17.90
2022-08-22T22:16:27.064Z,17.80
2022-08-22T22:18:54.831Z,17.80
2022-08-22T22:21:21.874Z,17.70
2022-08-22T22:23:50.525Z,17.60
2022-08-22T22:26:17.559Z,17.50
2022-08-22T22:28:50.359Z,17.50
2022-08-22T22:31:18.720Z,17.50
2022-08-22T22:33:46.156Z,17.40
2022-08-22T22:36:18.453Z,17.30
2022-08-22T22:38:46.059Z,17.20
2022-08-22T22:41:13.167Z,17.20
2022-08-22T22:43:40.151Z,17.20
2022-08-22T22:46:07.229Z,17.10
2022-08-22T22:48:34.311Z,17.10
2022-08-22T22:51:08.803Z,17.10
2022-08-22T22:53:40.228Z,17.00
2022-08-22T22:56:09.958Z,17.00
2022-08-22T22:58:37.547Z,17.00
2022-08-22T23:01:18.214Z,16.90
2022-08-22T23:03:46.244Z,16.90
2022-08-22T23:06:20.374Z,16.80
2022-08-22T23:08:48.584Z,16.70
2022-08-22T23:11:19.219Z,16.60
2022-08-22T23:13:48.191Z,16.60
2022-08-22T23:16:18.673Z,16.60
2022-08-22T23:18:46.404Z,16.50
2022-08-22T23:21:27.059Z,16.50
2022-08-22T23:23:58.507Z,16.50
2022-08-22T23:26:26.337Z,16.40
2022-08-22T23:28:53.289Z,16.40
2022-08-22T23:31:28.652Z,16.30
2022-08-22T23:33:56.432Z,16.30
2022-08-22T23:36:24.052Z,16.20
2022-08-22T23:38:51.919Z,16.20
2022-08-22T23:41:21.403Z,16.20
2022-08-22T23:43:52.053Z,16.10
2022-08-22T23:46:21.649Z,16.10
2022-08-22T23:48:49.280Z,16.00
2022-08-22T23:51:22.938Z,16.00
2022-08-22T23:53:51.446Z,16.00
2022-08-22T23:56:33.455Z,15.90
2022-08-22T23:59:05.557Z,15.90
